sensor_id;sensor_type;location;lat;lon;timestamp;temperature;humidity
57829;DHT22;43657;52.698;6.314;2023-08-31T00:00:22;10.40;99.90
57829;DHT22;43657;52.698;6.314;2023-08-31T00:02:48;10.50;99.90
57829;DHT22;43657;52.698;6.314;2023-08-31T00:05:14;10.60;99.90
57829;DHT22;43657;52.698;6.314;2023-08-31T00:07:39;10.60;99.90
57829;DHT22;43657;52.698;6.314;2023-08-31T00:10:05;10.80;99.90
57829;DHT22;43657;52.698;6.314;2023-08-31T00:12:35;10.90;99.90
57829;DHT22;43657;52.698;6.314;2023-08-31T00:15:02;11.00;99.90
57829;DHT22;43657;52.698;6.314;2023-08-31T00:17:30;11.00;99.90
57829;DHT22;43657;52.698;6.314;2023-08-31T00:19:55;11.10;99.90
57829;DHT22;43657;52.698;6.314;2023-08-31T00:22:21;11.20;99.90
57829;DHT22;43657;52.698;6.314;2023-08-31T00:24:46;11.20;99.90
57829;DHT22;43657;52.698;6.314;2023-08-31T00:27:12;11.20;99.90
57829;DHT22;43657;52.698;6.314;2023-08-31T00:29:40;11.20;99.90
57829;DHT22;43657;52.698;6.314;2023-08-31T00:32:06;11.20;99.90
57829;DHT22;43657;52.698;6.314;2023-08-31T00:34:31;11.20;99.90
57829;DHT22;43657;52.698;6.314;2023-08-31T00:36:57;11.20;99.90
57829;DHT22;43657;52.698;6.314;2023-08-31T00:39:23;11.20;99.90
57829;DHT22;43657;52.698;6.314;2023-08-31T00:41:48;11.20;99.90
57829;DHT22;43657;52.698;6.314;2023-08-31T00:44:15;11.20;99.90
57829;DHT22;43657;52.698;6.314;2023-08-31T00:46:41;11.30;99.90
57829;DHT22;43657;52.698;6.314;2023-08-31T00:49:07;11.30;99.90
57829;DHT22;43657;52.698;6.314;2023-08-31T00:51:34;11.30;99.90
57829;DHT22;43657;52.698;6.314;2023-08-31T00:54:00;11.30;99.90
57829;DHT22;43657;52.698;6.314;2023-08-31T00:56:26;11.20;99.90
57829;DHT22;43657;52.698;6.314;2023-08-31T00:58:52;11.20;99.90
57829;DHT22;43657;52.698;6.314;2023-08-31T01:01:36;11.20;99.90
57829;DHT22;43657;52.698;6.314;2023-08-31T01:04:15;11.20;99.90
57829;DHT22;43657;52.698;6.314;2023-08-31T01:10:02;11.20;99.90
57829;DHT22;43657;52.698;6.314;2023-08-31T01:12:35;11.20;99.90
57829;DHT22;43657;52.698;6.314;2023-08-31T01:15:09;11.10;99.90
57829;DHT22;43657;52.698;6.314;2023-08-31T01:17:44;11.20;99.90
57829;DHT22;43657;52.698;6.314;2023-08-31T01:20:14;11.20;99.90
57829;DHT22;43657;52.698;6.314;2023-08-31T01:23:02;11.20;99.90
57829;DHT22;43657;52.698;6.314;2023-08-31T01:25:32;11.20;99.90
57829;DHT22;43657;52.698;6.314;2023-08-31T01:27:59;11.10;99.90
57829;DHT22;43657;52.698;6.314;2023-08-31T01:30:25;11.10;99.90
57829;DHT22;43657;52.698;6.314;2023-08-31T01:32:50;11.10;99.90
57829;DHT22;43657;52.698;6.314;2023-08-31T01:35:17;11.10;99.90
57829;DHT22;43657;52.698;6.314;2023-08-31T01:37:58;11.00;99.90
57829;DHT22;43657;52.698;6.314;2023-08-31T01:40:34;11.00;99.90
57829;DHT22;43657;52.698;6.314;2023-08-31T01:43:04;11.00;99.90
57829;DHT22;43657;52.698;6.314;2023-08-31T01:45:31;11.00;99.90
57829;DHT22;43657;52.698;6.314;2023-08-31T01:47:59;10.90;99.90
57829;DHT22;43657;52.698;6.314;2023-08-31T01:50:25;10.90;99.90
57829;DHT22;43657;52.698;6.314;2023-08-31T01:52:51;10.80;99.90
57829;DHT22;43657;52.698;6.314;2023-08-31T01:55:18;10.80;99.90
57829;DHT22;43657;52.698;6.314;2023-08-31T01:57:44;10.80;99.90
57829;DHT22;43657;52.698;6.314;2023-08-31T02:00:10;10.70;99.90
57829;DHT22;43657;52.698;6.314;2023-08-31T02:02:36;10.80;99.90
57829;DHT22;43657;52.698;6.314;2023-08-31T02:05:02;10.70;99.90
57829;DHT22;43657;52.698;6.314;2023-08-31T02:07:29;10.70;99.90
57829;DHT22;43657;52.698;6.314;2023-08-31T02:09:55;10.60;99.90
57829;DHT22;43657;52.698;6.314;2023-08-31T02:12:21;10.60;99.90
57829;DHT22;43657;52.698;6.314;2023-08-31T02:14:47;10.60;99.90
57829;DHT22;43657;52.698;6.314;2023-08-31T02:17:12;10.60;99.90
57829;DHT22;43657;52.698;6.314;2023-08-31T02:19:38;10.50;99.90
57829;DHT22;43657;52.698;6.314;2023-08-31T02:22:03;10.50;99.90
57829;DHT22;43657;52.698;6.314;2023-08-31T02:24:29;10.40;99.90
57829;DHT22;43657;52.698;6.314;2023-08-31T02:26:56;10.40;99.90
57829;DHT22;43657;52.698;6.314;2023-08-31T02:29:21;10.40;99.90
57829;DHT22;43657;52.698;6.314;2023-08-31T02:31:47;10.40;99.90
57829;DHT22;43657;52.698;6.314;2023-08-31T02:34:12;10.40;99.90
57829;DHT22;43657;52.698;6.314;2023-08-31T02:36:38;10.30;99.90
57829;DHT22;43657;52.698;6.314;2023-08-31T02:39:04;10.30;99.90
57829;DHT22;43657;52.698;6.314;2023-08-31T02:41:29;10.30;99.90
57829;DHT22;43657;52.698;6.314;2023-08-31T02:43:55;10.30;99.90
57829;DHT22;43657;52.698;6.314;2023-08-31T02:46:21;10.30;99.90
57829;DHT22;43657;52.698;6.314;2023-08-31T02:48:48;10.30;99.90
57829;DHT22;43657;52.698;6.314;2023-08-31T02:51:13;10.30;99.90
57829;DHT22;43657;52.698;6.314;2023-08-31T02:53:39;10.20;99.90
57829;DHT22;43657;52.698;6.314;2023-08-31T02:56:04;10.20;99.90
57829;DHT22;43657;52.698;6.314;2023-08-31T02:58:30;10.20;99.90
57829;DHT22;43657;52.698;6.314;2023-08-31T03:01:15;10.20;99.90
57829;DHT22;43657;52.698;6.314;2023-08-31T03:03:41;10.20;99.90
57829;DHT22;43657;52.698;6.314;2023-08-31T03:06:08;10.20;99.90
57829;DHT22;43657;52.698;6.314;2023-08-31T03:08:35;10.20;99.90
57829;DHT22;43657;52.698;6.314;2023-08-31T03:11:02;10.20;99.90
57829;DHT22;43657;52.698;6.314;2023-08-31T03:13:28;10.20;99.90
57829;DHT22;43657;52.698;6.314;2023-08-31T03:15:54;10.20;99.90
57829;DHT22;43657;52.698;6.314;2023-08-31T03:18:19;10.20;99.90
57829;DHT22;43657;52.698;6.314;2023-08-31T03:20:45;10.20;99.90
57829;DHT22;43657;52.698;6.314;2023-08-31T03:23:10;10.20;99.90
57829;DHT22;43657;52.698;6.314;2023-08-31T03:25:36;10.20;99.90
57829;DHT22;43657;52.698;6.314;2023-08-31T03:28:03;10.20;99.90
57829;DHT22;43657;52.698;6.314;2023-08-31T03:30:28;10.10;99.90
57829;DHT22;43657;52.698;6.314;2023-08-31T03:32:54;10.20;99.90
57829;DHT22;43657;52.698;6.314;2023-08-31T03:35:19;10.20;99.90
57829;DHT22;43657;52.698;6.314;2023-08-31T03:37:49;10.20;99.90
57829;DHT22;43657;52.698;6.314;2023-08-31T03:40:15;10.20;99.90
57829;DHT22;43657;52.698;6.314;2023-08-31T03:42:40;10.20;99.90
57829;DHT22;43657;52.698;6.314;2023-08-31T03:45:06;10.10;99.90
57829;DHT22;43657;52.698;6.314;2023-08-31T03:47:32;10.20;99.90
57829;DHT22;43657;52.698;6.314;2023-08-31T03:49:57;10.20;99.90
57829;DHT22;43657;52.698;6.314;2023-08-31T03:52:23;10.20;99.90
57829;DHT22;43657;52.698;6.314;2023-08-31T03:54:49;10.10;99.90
57829;DHT22;43657;52.698;6.314;2023-08-31T03:57:15;10.20;99.90
57829;DHT22;43657;52.698;6.314;2023-08-31T03:59:40;10.20;99.90
57829;DHT22;43657;52.698;6.314;2023-08-31T04:02:06;10.20;99.90
57829;DHT22;43657;52.698;6.314;2023-08-31T04:04:31;10.20;99.90
57829;DHT22;43657;52.698;6.314;2023-08-31T04:06:58;10.30;99.90
57829;DHT22;43657;52.698;6.314;2023-08-31T04:09:23;10.30;99.90
57829;DHT22;43657;52.698;6.314;2023-08-31T04:11:49;10.30;99.90
57829;DHT22;43657;52.698;6.314;2023-08-31T04:14:14;10.30;99.90
57829;DHT22;43657;52.698;6.314;2023-08-31T04:16:40;10.30;99.90
57829;DHT22;43657;52.698;6.314;2023-08-31T04:19:05;10.30;99.90
57829;DHT22;43657;52.698;6.314;2023-08-31T04:21:31;10.30;99.90
57829;DHT22;43657;52.698;6.314;2023-08-31T04:23:57;10.30;99.90
57829;DHT22;43657;52.698;6.314;2023-08-31T04:26:25;10.40;99.90
57829;DHT22;43657;52.698;6.314;2023-08-31T04:28:50;10.40;99.90
57829;DHT22;43657;52.698;6.314;2023-08-31T04:31:16;10.50;99.90
57829;DHT22;43657;52.698;6.314;2023-08-31T04:33:41;10.50;99.90
57829;DHT22;43657;52.698;6.314;2023-08-31T04:36:07;10.60;99.90
57829;DHT22;43657;52.698;6.314;2023-08-31T04:38:34;10.60;99.90
57829;DHT22;43657;52.698;6.314;2023-08-31T04:41:00;10.60;99.90
57829;DHT22;43657;52.698;6.314;2023-08-31T04:43:26;10.70;99.90
57829;DHT22;43657;52.698;6.314;2023-08-31T04:45:53;10.70;99.90
57829;DHT22;43657;52.698;6.314;2023-08-31T04:48:19;10.80;99.90
57829;DHT22;43657;52.698;6.314;2023-08-31T04:50:44;10.80;99.90
57829;DHT22;43657;52.698;6.314;2023-08-31T04:53:10;10.80;99.90
57829;DHT22;43657;52.698;6.314;2023-08-31T04:55:35;10.80;99.90
57829;DHT22;43657;52.698;6.314;2023-08-31T04:58:01;10.80;99.90
57829;DHT22;43657;52.698;6.314;2023-08-31T05:00:26;10.80;99.90
57829;DHT22;43657;52.698;6.314;2023-08-31T05:02:52;10.80;99.90
57829;DHT22;43657;52.698;6.314;2023-08-31T05:05:18;10.80;99.90
57829;DHT22;43657;52.698;6.314;2023-08-31T05:07:46;10.80;99.90
57829;DHT22;43657;52.698;6.314;2023-08-31T05:10:12;10.90;99.90
57829;DHT22;43657;52.698;6.314;2023-08-31T05:12:37;10.90;99.90
57829;DHT22;43657;52.698;6.314;2023-08-31T05:15:03;10.90;99.90
57829;DHT22;43657;52.698;6.314;2023-08-31T05:17:29;10.90;99.90
57829;DHT22;43657;52.698;6.314;2023-08-31T05:19:55;10.90;99.90
57829;DHT22;43657;52.698;6.314;2023-08-31T05:22:21;10.90;99.90
57829;DHT22;43657;52.698;6.314;2023-08-31T05:24:48;11.00;99.90
57829;DHT22;43657;52.698;6.314;2023-08-31T05:27:13;11.00;99.90
57829;DHT22;43657;52.698;6.314;2023-08-31T05:29:39;11.00;99.90
57829;DHT22;43657;52.698;6.314;2023-08-31T05:32:05;11.00;99.90
57829;DHT22;43657;52.698;6.314;2023-08-31T05:34:30;11.10;99.90
57829;DHT22;43657;52.698;6.314;2023-08-31T05:36:58;11.00;99.90
57829;DHT22;43657;52.698;6.314;2023-08-31T05:39:24;11.20;99.90
57829;DHT22;43657;52.698;6.314;2023-08-31T05:41:50;11.20;99.90
57829;DHT22;43657;52.698;6.314;2023-08-31T05:44:16;11.20;99.90
57829;DHT22;43657;52.698;6.314;2023-08-31T05:46:42;11.30;99.90
57829;DHT22;43657;52.698;6.314;2023-08-31T05:49:08;11.30;99.90
57829;DHT22;43657;52.698;6.314;2023-08-31T05:51:34;11.30;99.90
57829;DHT22;43657;52.698;6.314;2023-08-31T05:53:59;11.40;99.90
57829;DHT22;43657;52.698;6.314;2023-08-31T05:56:25;11.40;99.90
57829;DHT22;43657;52.698;6.314;2023-08-31T05:58:50;11.50;99.90
57829;DHT22;43657;52.698;6.314;2023-08-31T06:01:20;11.50;99.90
57829;DHT22;43657;52.698;6.314;2023-08-31T06:03:45;11.50;99.90
57829;DHT22;43657;52.698;6.314;2023-08-31T06:06:11;11.60;99.90
57829;DHT22;43657;52.698;6.314;2023-08-31T06:08:36;11.60;99.90
57829;DHT22;43657;52.698;6.314;2023-08-31T06:11:02;11.70;99.90
57829;DHT22;43657;52.698;6.314;2023-08-31T06:13:27;11.80;99.90
57829;DHT22;43657;52.698;6.314;2023-08-31T06:15:53;11.90;99.90
57829;DHT22;43657;52.698;6.314;2023-08-31T06:18:20;12.00;99.90
57829;DHT22;43657;52.698;6.314;2023-08-31T06:20:48;12.10;99.90
57829;DHT22;43657;52.698;6.314;2023-08-31T06:23:14;12.20;99.90
57829;DHT22;43657;52.698;6.314;2023-08-31T06:25:39;12.20;99.90
57829;DHT22;43657;52.698;6.314;2023-08-31T06:28:05;12.30;99.90
57829;DHT22;43657;52.698;6.314;2023-08-31T06:30:34;12.30;99.90
57829;DHT22;43657;52.698;6.314;2023-08-31T06:33:00;12.40;99.90
57829;DHT22;43657;52.698;6.314;2023-08-31T06:35:26;12.50;99.90
57829;DHT22;43657;52.698;6.314;2023-08-31T06:37:51;12.50;99.90
57829;DHT22;43657;52.698;6.314;2023-08-31T06:40:17;12.50;99.90
57829;DHT22;43657;52.698;6.314;2023-08-31T06:42:42;12.50;99.90
57829;DHT22;43657;52.698;6.314;2023-08-31T06:45:08;12.60;99.90
57829;DHT22;43657;52.698;6.314;2023-08-31T06:47:34;12.60;99.90
57829;DHT22;43657;52.698;6.314;2023-08-31T06:50:00;12.70;99.90
57829;DHT22;43657;52.698;6.314;2023-08-31T06:52:26;12.80;99.90
57829;DHT22;43657;52.698;6.314;2023-08-31T06:54:52;12.90;99.90
57829;DHT22;43657;52.698;6.314;2023-08-31T06:57:23;12.90;99.90
57829;DHT22;43657;52.698;6.314;2023-08-31T06:59:48;13.00;99.90
57829;DHT22;43657;52.698;6.314;2023-08-31T07:02:14;13.10;99.90
57829;DHT22;43657;52.698;6.314;2023-08-31T07:04:40;13.10;99.90
57829;DHT22;43657;52.698;6.314;2023-08-31T07:07:06;13.20;99.90
57829;DHT22;43657;52.698;6.314;2023-08-31T07:09:34;13.20;99.90
57829;DHT22;43657;52.698;6.314;2023-08-31T07:12:00;13.10;99.90
57829;DHT22;43657;52.698;6.314;2023-08-31T07:14:26;13.10;99.90
57829;DHT22;43657;52.698;6.314;2023-08-31T07:16:52;13.10;99.90
57829;DHT22;43657;52.698;6.314;2023-08-31T07:19:18;13.10;99.90
57829;DHT22;43657;52.698;6.314;2023-08-31T07:21:43;13.20;99.90
57829;DHT22;43657;52.698;6.314;2023-08-31T07:24:09;13.20;99.90
57829;DHT22;43657;52.698;6.314;2023-08-31T07:26:35;13.30;99.90
57829;DHT22;43657;52.698;6.314;2023-08-31T07:29:01;13.40;99.90
57829;DHT22;43657;52.698;6.314;2023-08-31T07:31:30;13.50;99.90
57829;DHT22;43657;52.698;6.314;2023-08-31T07:33:55;13.50;99.90
57829;DHT22;43657;52.698;6.314;2023-08-31T07:36:21;13.60;99.90
57829;DHT22;43657;52.698;6.314;2023-08-31T07:38:47;13.60;99.90
57829;DHT22;43657;52.698;6.314;2023-08-31T07:41:12;13.60;99.90
57829;DHT22;43657;52.698;6.314;2023-08-31T07:43:38;13.70;99.90
57829;DHT22;43657;52.698;6.314;2023-08-31T07:46:03;13.80;99.90
57829;DHT22;43657;52.698;6.314;2023-08-31T07:48:29;13.90;99.90
57829;DHT22;43657;52.698;6.314;2023-08-31T07:50:55;14.00;99.90
57829;DHT22;43657;52.698;6.314;2023-08-31T07:53:20;14.10;99.90
57829;DHT22;43657;52.698;6.314;2023-08-31T07:55:53;14.30;99.90
57829;DHT22;43657;52.698;6.314;2023-08-31T07:58:20;14.50;99.90
57829;DHT22;43657;52.698;6.314;2023-08-31T08:00:46;14.60;99.90
57829;DHT22;43657;52.698;6.314;2023-08-31T08:03:12;14.70;99.90
57829;DHT22;43657;52.698;6.314;2023-08-31T08:05:39;14.90;99.90
57829;DHT22;43657;52.698;6.314;2023-08-31T08:08:04;15.00;99.90
57829;DHT22;43657;52.698;6.314;2023-08-31T08:10:30;15.10;99.90
57829;DHT22;43657;52.698;6.314;2023-08-31T08:12:56;15.20;99.90
57829;DHT22;43657;52.698;6.314;2023-08-31T08:15:21;15.20;99.90
57829;DHT22;43657;52.698;6.314;2023-08-31T08:17:47;15.10;99.90
57829;DHT22;43657;52.698;6.314;2023-08-31T08:20:13;15.00;99.90
57829;DHT22;43657;52.698;6.314;2023-08-31T08:22:39;15.00;99.90
57829;DHT22;43657;52.698;6.314;2023-08-31T08:25:05;15.10;99.90
57829;DHT22;43657;52.698;6.314;2023-08-31T08:27:31;15.30;99.90
57829;DHT22;43657;52.698;6.314;2023-08-31T08:30:01;15.40;99.90
57829;DHT22;43657;52.698;6.314;2023-08-31T08:32:27;15.60;99.90
57829;DHT22;43657;52.698;6.314;2023-08-31T08:34:52;15.90;99.90
57829;DHT22;43657;52.698;6.314;2023-08-31T08:37:19;16.40;99.90
57829;DHT22;43657;52.698;6.314;2023-08-31T08:39:48;16.90;99.90
57829;DHT22;43657;52.698;6.314;2023-08-31T08:42:15;17.20;99.90
57829;DHT22;43657;52.698;6.314;2023-08-31T08:44:43;17.30;99.90
57829;DHT22;43657;52.698;6.314;2023-08-31T08:47:09;17.30;99.90
57829;DHT22;43657;52.698;6.314;2023-08-31T08:49:36;17.40;99.90
57829;DHT22;43657;52.698;6.314;2023-08-31T08:52:02;17.70;99.90
57829;DHT22;43657;52.698;6.314;2023-08-31T08:54:28;18.10;99.90
57829;DHT22;43657;52.698;6.314;2023-08-31T08:56:53;18.20;99.90
57829;DHT22;43657;52.698;6.314;2023-08-31T08:59:19;18.50;99.90
57829;DHT22;43657;52.698;6.314;2023-08-31T09:01:46;19.00;99.90
57829;DHT22;43657;52.698;6.314;2023-08-31T09:04:12;19.50;99.90
57829;DHT22;43657;52.698;6.314;2023-08-31T09:06:38;19.90;99.90
57829;DHT22;43657;52.698;6.314;2023-08-31T09:09:04;20.30;99.90
57829;DHT22;43657;52.698;6.314;2023-08-31T09:11:30;20.60;99.90
57829;DHT22;43657;52.698;6.314;2023-08-31T09:13:57;20.80;99.90
57829;DHT22;43657;52.698;6.314;2023-08-31T09:16:24;20.90;99.90
57829;DHT22;43657;52.698;6.314;2023-08-31T09:18:51;21.10;99.90
57829;DHT22;43657;52.698;6.314;2023-08-31T09:21:17;21.20;99.90
57829;DHT22;43657;52.698;6.314;2023-08-31T09:23:57;21.30;99.90
57829;DHT22;43657;52.698;6.314;2023-08-31T09:26:23;21.30;99.90
57829;DHT22;43657;52.698;6.314;2023-08-31T09:28:49;21.40;99.90
57829;DHT22;43657;52.698;6.314;2023-08-31T09:31:15;21.50;99.90
57829;DHT22;43657;52.698;6.314;2023-08-31T09:33:52;21.50;99.90
57829;DHT22;43657;52.698;6.314;2023-08-31T09:36:19;21.60;99.90
57829;DHT22;43657;52.698;6.314;2023-08-31T09:38:45;21.70;99.90
57829;DHT22;43657;52.698;6.314;2023-08-31T09:41:11;21.60;99.90
57829;DHT22;43657;52.698;6.314;2023-08-31T09:43:37;21.60;99.90
57829;DHT22;43657;52.698;6.314;2023-08-31T09:46:04;21.80;99.90
57829;DHT22;43657;52.698;6.314;2023-08-31T09:48:30;21.60;99.90
57829;DHT22;43657;52.698;6.314;2023-08-31T09:51:04;21.20;99.90
57829;DHT22;43657;52.698;6.314;2023-08-31T09:53:31;20.90;99.90
57829;DHT22;43657;52.698;6.314;2023-08-31T09:55:57;21.00;99.90
57829;DHT22;43657;52.698;6.314;2023-08-31T09:58:23;21.20;99.90
57829;DHT22;43657;52.698;6.314;2023-08-31T10:00:51;21.40;99.90
57829;DHT22;43657;52.698;6.314;2023-08-31T10:03:17;21.10;99.90
57829;DHT22;43657;52.698;6.314;2023-08-31T10:05:49;20.40;99.90
57829;DHT22;43657;52.698;6.314;2023-08-31T10:08:16;19.80;99.90
57829;DHT22;43657;52.698;6.314;2023-08-31T10:10:41;19.10;99.90
57829;DHT22;43657;52.698;6.314;2023-08-31T10:13:08;18.50;99.90
57829;DHT22;43657;52.698;6.314;2023-08-31T10:15:36;18.00;99.90
57829;DHT22;43657;52.698;6.314;2023-08-31T10:18:04;17.40;99.90
57829;DHT22;43657;52.698;6.314;2023-08-31T10:20:30;17.00;99.90
57829;DHT22;43657;52.698;6.314;2023-08-31T10:23:02;16.80;99.90
57829;DHT22;43657;52.698;6.314;2023-08-31T10:28:19;17.60;99.90
57829;DHT22;43657;52.698;6.314;2023-08-31T10:31:04;18.10;99.90
57829;DHT22;43657;52.698;6.314;2023-08-31T10:33:58;18.80;99.90
57829;DHT22;43657;52.698;6.314;2023-08-31T10:36:39;19.20;99.90
57829;DHT22;43657;52.698;6.314;2023-08-31T10:39:15;19.30;99.90
57829;DHT22;43657;52.698;6.314;2023-08-31T10:41:41;19.30;99.90
57829;DHT22;43657;52.698;6.314;2023-08-31T10:46:45;19.80;99.90
57829;DHT22;43657;52.698;6.314;2023-08-31T10:51:42;19.80;99.90
57829;DHT22;43657;52.698;6.314;2023-08-31T10:56:55;20.30;99.90
57829;DHT22;43657;52.698;6.314;2023-08-31T10:59:41;20.60;99.90
57829;DHT22;43657;52.698;6.314;2023-08-31T11:02:07;20.70;99.90
57829;DHT22;43657;52.698;6.314;2023-08-31T11:05:34;20.70;99.90
57829;DHT22;43657;52.698;6.314;2023-08-31T11:07:42;20.30;99.90
57829;DHT22;43657;52.698;6.314;2023-08-31T11:10:11;19.80;99.90
57829;DHT22;43657;52.698;6.314;2023-08-31T11:12:38;19.30;99.90
57829;DHT22;43657;52.698;6.314;2023-08-31T11:15:04;18.80;99.90
57829;DHT22;43657;52.698;6.314;2023-08-31T11:17:30;18.40;99.90
57829;DHT22;43657;52.698;6.314;2023-08-31T11:19:58;17.90;99.90
57829;DHT22;43657;52.698;6.314;2023-08-31T11:22:24;17.20;99.90
57829;DHT22;43657;52.698;6.314;2023-08-31T11:24:50;16.30;99.90
57829;DHT22;43657;52.698;6.314;2023-08-31T11:27:19;15.50;99.90
57829;DHT22;43657;52.698;6.314;2023-08-31T11:29:45;15.00;99.90
57829;DHT22;43657;52.698;6.314;2023-08-31T11:32:11;14.60;99.90
57829;DHT22;43657;52.698;6.314;2023-08-31T11:34:44;14.40;99.90
57829;DHT22;43657;52.698;6.314;2023-08-31T11:37:11;14.40;99.90
57829;DHT22;43657;52.698;6.314;2023-08-31T11:39:40;14.40;99.90
57829;DHT22;43657;52.698;6.314;2023-08-31T11:42:05;14.60;99.90
57829;DHT22;43657;52.698;6.314;2023-08-31T11:44:31;14.80;99.90
57829;DHT22;43657;52.698;6.314;2023-08-31T11:46:57;15.20;99.90
57829;DHT22;43657;52.698;6.314;2023-08-31T11:49:23;15.90;99.90
57829;DHT22;43657;52.698;6.314;2023-08-31T11:51:50;16.60;99.90
57829;DHT22;43657;52.698;6.314;2023-08-31T11:54:16;17.40;99.90
57829;DHT22;43657;52.698;6.314;2023-08-31T11:56:46;18.10;99.90
57829;DHT22;43657;52.698;6.314;2023-08-31T11:59:18;18.80;99.90
57829;DHT22;43657;52.698;6.314;2023-08-31T12:01:46;19.40;99.90
57829;DHT22;43657;52.698;6.314;2023-08-31T12:04:21;19.50;99.90
57829;DHT22;43657;52.698;6.314;2023-08-31T12:06:51;19.60;99.90
57829;DHT22;43657;52.698;6.314;2023-08-31T12:09:18;19.70;99.90
57829;DHT22;43657;52.698;6.314;2023-08-31T12:11:50;19.80;99.90
57829;DHT22;43657;52.698;6.314;2023-08-31T12:14:24;19.40;99.90
57829;DHT22;43657;52.698;6.314;2023-08-31T12:16:50;18.70;99.90
57829;DHT22;43657;52.698;6.314;2023-08-31T12:19:16;18.10;99.90
57829;DHT22;43657;52.698;6.314;2023-08-31T12:21:44;17.30;99.90
57829;DHT22;43657;52.698;6.314;2023-08-31T12:24:10;16.70;99.90
57829;DHT22;43657;52.698;6.314;2023-08-31T12:26:40;16.00;99.90
57829;DHT22;43657;52.698;6.314;2023-08-31T12:29:16;15.70;99.90
57829;DHT22;43657;52.698;6.314;2023-08-31T12:31:42;15.30;99.90
57829;DHT22;43657;52.698;6.314;2023-08-31T12:34:09;15.20;99.90
57829;DHT22;43657;52.698;6.314;2023-08-31T12:36:35;15.10;99.90
57829;DHT22;43657;52.698;6.314;2023-08-31T12:39:03;15.10;99.90
57829;DHT22;43657;52.698;6.314;2023-08-31T12:41:32;15.10;99.90
57829;DHT22;43657;52.698;6.314;2023-08-31T12:43:57;15.50;99.90
57829;DHT22;43657;52.698;6.314;2023-08-31T12:46:25;16.10;99.90
57829;DHT22;43657;52.698;6.314;2023-08-31T12:48:51;16.90;99.90
57829;DHT22;43657;52.698;6.314;2023-08-31T12:51:18;17.50;99.90
57829;DHT22;43657;52.698;6.314;2023-08-31T12:53:44;18.20;99.90
57829;DHT22;43657;52.698;6.314;2023-08-31T12:56:09;18.80;99.90
57829;DHT22;43657;52.698;6.314;2023-08-31T12:58:35;19.30;99.90
57829;DHT22;43657;52.698;6.314;2023-08-31T13:01:01;19.80;99.90
57829;DHT22;43657;52.698;6.314;2023-08-31T13:03:27;20.00;99.90
57829;DHT22;43657;52.698;6.314;2023-08-31T13:05:53;20.20;99.90
57829;DHT22;43657;52.698;6.314;2023-08-31T13:08:19;20.50;99.90
57829;DHT22;43657;52.698;6.314;2023-08-31T13:10:51;20.80;99.90
57829;DHT22;43657;52.698;6.314;2023-08-31T13:13:17;21.10;99.90
57829;DHT22;43657;52.698;6.314;2023-08-31T13:15:45;21.30;99.90
57829;DHT22;43657;52.698;6.314;2023-08-31T13:18:10;21.30;99.90
57829;DHT22;43657;52.698;6.314;2023-08-31T13:20:36;21.40;99.90
57829;DHT22;43657;52.698;6.314;2023-08-31T13:23:02;21.30;99.90
57829;DHT22;43657;52.698;6.314;2023-08-31T13:25:28;21.00;99.90
57829;DHT22;43657;52.698;6.314;2023-08-31T13:27:54;20.30;99.90
57829;DHT22;43657;52.698;6.314;2023-08-31T13:30:19;19.80;99.90
57829;DHT22;43657;52.698;6.314;2023-08-31T13:32:45;19.30;99.90
57829;DHT22;43657;52.698;6.314;2023-08-31T13:35:10;19.00;99.90
57829;DHT22;43657;52.698;6.314;2023-08-31T13:37:36;18.70;99.90
57829;DHT22;43657;52.698;6.314;2023-08-31T13:40:02;18.40;99.90
57829;DHT22;43657;52.698;6.314;2023-08-31T13:42:34;18.40;99.90
57829;DHT22;43657;52.698;6.314;2023-08-31T13:45:00;18.90;99.90
57829;DHT22;43657;52.698;6.314;2023-08-31T13:47:25;19.40;99.90
57829;DHT22;43657;52.698;6.314;2023-08-31T13:49:51;19.60;99.90
57829;DHT22;43657;52.698;6.314;2023-08-31T13:52:16;19.20;99.90
57829;DHT22;43657;52.698;6.314;2023-08-31T13:54:42;19.10;99.90
57829;DHT22;43657;52.698;6.314;2023-08-31T13:57:08;19.40;99.90
57829;DHT22;43657;52.698;6.314;2023-08-31T13:59:33;19.80;99.90
57829;DHT22;43657;52.698;6.314;2023-08-31T14:01:59;19.90;99.90
57829;DHT22;43657;52.698;6.314;2023-08-31T14:04:24;19.70;99.90
57829;DHT22;43657;52.698;6.314;2023-08-31T14:06:50;19.90;99.90
57829;DHT22;43657;52.698;6.314;2023-08-31T14:09:15;20.10;99.90
57829;DHT22;43657;52.698;6.314;2023-08-31T14:11:42;20.20;99.90
57829;DHT22;43657;52.698;6.314;2023-08-31T14:14:08;20.20;99.90
57829;DHT22;43657;52.698;6.314;2023-08-31T14:16:37;19.80;99.90
57829;DHT22;43657;52.698;6.314;2023-08-31T14:19:03;19.60;99.90
57829;DHT22;43657;52.698;6.314;2023-08-31T14:21:29;19.80;99.90
57829;DHT22;43657;52.698;6.314;2023-08-31T14:23:55;19.80;99.90
57829;DHT22;43657;52.698;6.314;2023-08-31T14:26:24;19.70;99.90
57829;DHT22;43657;52.698;6.314;2023-08-31T14:28:53;19.60;99.90
57829;DHT22;43657;52.698;6.314;2023-08-31T14:31:19;19.50;99.90
57829;DHT22;43657;52.698;6.314;2023-08-31T14:33:45;19.10;99.90
57829;DHT22;43657;52.698;6.314;2023-08-31T14:36:13;18.90;99.90
57829;DHT22;43657;52.698;6.314;2023-08-31T14:38:39;18.70;99.90
57829;DHT22;43657;52.698;6.314;2023-08-31T14:41:04;18.60;99.90
57829;DHT22;43657;52.698;6.314;2023-08-31T14:43:34;18.50;99.90
57829;DHT22;43657;52.698;6.314;2023-08-31T14:46:00;18.30;99.90
57829;DHT22;43657;52.698;6.314;2023-08-31T14:48:30;18.30;99.90
57829;DHT22;43657;52.698;6.314;2023-08-31T14:50:56;18.10;99.90
57829;DHT22;43657;52.698;6.314;2023-08-31T14:53:25;18.10;99.90
57829;DHT22;43657;52.698;6.314;2023-08-31T14:55:51;18.00;99.90
57829;DHT22;43657;52.698;6.314;2023-08-31T14:58:17;18.00;99.90
57829;DHT22;43657;52.698;6.314;2023-08-31T15:00:43;17.90;99.90
57829;DHT22;43657;52.698;6.314;2023-08-31T15:03:09;17.90;99.90
57829;DHT22;43657;52.698;6.314;2023-08-31T15:05:35;17.90;99.90
57829;DHT22;43657;52.698;6.314;2023-08-31T15:08:03;17.80;99.90
57829;DHT22;43657;52.698;6.314;2023-08-31T15:10:29;17.70;99.90
57829;DHT22;43657;52.698;6.314;2023-08-31T15:12:54;17.70;99.90
57829;DHT22;43657;52.698;6.314;2023-08-31T15:15:27;17.60;99.90
57829;DHT22;43657;52.698;6.314;2023-08-31T15:17:54;17.60;99.90
57829;DHT22;43657;52.698;6.314;2023-08-31T15:20:20;17.60;99.90
57829;DHT22;43657;52.698;6.314;2023-08-31T15:22:46;17.50;99.90
57829;DHT22;43657;52.698;6.314;2023-08-31T15:25:12;17.50;99.90
57829;DHT22;43657;52.698;6.314;2023-08-31T15:27:37;17.50;99.90
57829;DHT22;43657;52.698;6.314;2023-08-31T15:30:06;17.50;99.90
57829;DHT22;43657;52.698;6.314;2023-08-31T15:32:33;17.50;99.90
57829;DHT22;43657;52.698;6.314;2023-08-31T15:34:59;17.40;99.90
57829;DHT22;43657;52.698;6.314;2023-08-31T15:37:25;17.40;99.90
57829;DHT22;43657;52.698;6.314;2023-08-31T15:39:51;17.30;99.90
57829;DHT22;43657;52.698;6.314;2023-08-31T15:42:16;17.30;99.90